• Join FlightAware (Why Join?)
  • Login
  • US Flag 
01:31AM EDT


 

Airport Tracker/Info


-or-


 

Live Flight TrackerFlight Track Log ✈ AWI3722 ✈ 08-Apr-2013 ✈ KPHL - KPWM

Flight Track Log - Related Links

Times and Time Zones

All times are in EDT time to prevent confusion due to time zone crossing. See the AWI3722 flight status page for this flight to view local times or setup timezone preferences in your user account.

Time Position Orientation Groundspeed Altitude Reporting Facility
EDT Latitude Longitude Course Direction KTS MPH feet Rate Location/Type
01:53PM 39.8667 -75.2833 90° East 168 193 500  Level Philadelphia TRACON
01:54PM 39.8572 -75.2914 213° Southwest 161 185 1,000 1,680 Climbing FAA TRACON SMA TRACON (SMA)
01:54PM 39.8472 -75.3089 233° Southwest 183 211 1,600 1,800 Climbing FAA TRACON SMA TRACON (SMA)
01:54PM 39.8344 -75.3233 221° Southwest 193 222 2,200 2,340 Climbing FAA TRACON SMA TRACON (SMA)
01:55PM 39.8183 -75.3414 221° Southwest 201 231 3,200 2,580 Climbing FAA TRACON SMA TRACON (SMA)
01:55PM 39.8047 -75.3553 218° Southwest 203 234 4,000 2,700 Climbing FAA TRACON SMA TRACON (SMA)
01:55PM 39.7836 -75.3617 193° South 215 247 5,000 2,220 Climbing FAA TRACON SMA TRACON (SMA)
01:56PM 39.8064 -74.8154 105° East  Level FlightAware Approximate
01:56PM 39.7658 -75.3494 152° Southeast 248 285 5,500  Level FAA TRACON SMA TRACON (SMA)
01:56PM 39.7533 -75.3250 124° Southeast 274 315 6,000 1,920 Climbing FAA TRACON SMA TRACON (SMA)
01:56PM 39.7536 -75.2856 89° East 297 342 6,800 2,280 Climbing FAA TRACON SMA TRACON (SMA)
01:57PM 39.7884 -74.6746 75° East  Level FlightAware Approximate
01:57PM 39.7578 -75.2531 81° East 297 342 7,500  Level FAA TRACON SMA TRACON (SMA)
01:57PM 39.7614 -75.2222 81° East 303 349 8,100 2,520 Climbing FAA TRACON SMA TRACON (SMA)
01:57PM 39.7650 -75.1778 84° East 307 353 9,200 2,760 Climbing FAA TRACON SMA TRACON (SMA)
01:58PM 39.8000 -74.5309 90° East  Level FlightAware Approximate
01:58PM 39.7675 -75.1431 85° East 313 360 9,900  Level FAA TRACON SMA TRACON (SMA)
01:58PM 39.7694 -75.1078 86° East 318 366 10,400 1,800 Climbing FAA TRACON SMA TRACON (SMA)
01:58PM 39.7719 -75.0639 86° East 334 384 11,100 1,800 Climbing FAA TRACON SMA TRACON (SMA)
01:59PM 39.8167 -74.3960 90° East  Level FlightAware Approximate
01:59PM 39.7744 -75.0217 86° East 357 411 11,600  Level FAA TRACON SMA TRACON (SMA)
01:59PM 39.7767 -74.9819 86° East 358 412 12,000 600 Climbing FAA TRACON SMA TRACON (SMA)
01:59PM 39.7797 -74.9325 85° East 362 417 12,000  Level FAA TRACON SMA TRACON (SMA)
02:00PM 39.7822 -74.8906 86° East 368 423 12,000 240 Level FAA TRACON SMA TRACON (SMA)
02:00PM 39.7847 -74.8397 86° East 372 428 12,200 1,200 Climbing FAA TRACON SMA TRACON (SMA)
02:00PM 39.7878 -74.7994 84° East 373 429 12,800 1,800 Climbing FAA TRACON SMA TRACON (SMA)
02:01PM 39.7908 -74.7556 85° East 376 433 13,400 1,920 Climbing FAA TRACON SMA TRACON (SMA)
02:01PM 39.7933 -74.7133 86° East 379 436 14,100 1,920 Climbing FAA TRACON SMA TRACON (SMA)
02:01PM 39.7972 -74.6600 85° East 383 441 14,700 1,500 Climbing FAA TRACON SMA TRACON (SMA)
02:02PM 39.8014 -74.6197 82° East 387 445 15,100 1,500 Climbing FAA TRACON SMA TRACON (SMA)
02:02PM 39.8042 -74.5744 85° East 391 450 15,700 1,800 Climbing FAA TRACON SMA TRACON (SMA)
02:02PM 39.8100 -74.5186 82° East 396 456 16,300 1,920 Climbing FAA TRACON SMA TRACON (SMA)
02:03PM 39.8136 -74.4747 84° East 398 458 17,000 1,500 Climbing FAA TRACON SMA TRACON (SMA)
02:03PM 39.8172 -74.4308 84° East 398 458 17,300 1,200 Climbing FAA TRACON SMA TRACON (SMA)
02:03PM 39.8169 -74.3747 90° East 399 459 17,800 1,020 Climbing FAA TRACON SMA TRACON (SMA)
02:04PM 39.8175 -74.3536 88° East 407 468 18,000 1,140 Climbing FAA TRACON SMA TRACON (SMA)
02:06PM 39.8964 -74.0708 70° East 375 432 20,700 1,140 Climbing Boston Center
02:07PM 39.9831 -73.9728 41° Northeast 377 434 21,700 1,020 Climbing Boston Center
02:08PM 40.0953 -73.8369 43° Northeast 412 474 23,000 540 Climbing Boston Center
02:09PM 40.1819 -73.7303 43° Northeast 417 480 23,000  Level Boston Center
02:10PM 40.2686 -73.6258 43° Northeast 424 488 23,000 420 Level Boston Center
02:11PM 40.3531 -73.5239 43° Northeast 419 482 23,900 780 Climbing Boston Center
02:12PM 40.4331 -73.4189 45° Northeast 419 482 24,600 960 Climbing Boston Center
02:13PM 40.5194 -73.3136 43° Northeast 414 476 25,900 1,140 Climbing Boston Center
02:14PM 40.6014 -73.2108 44° Northeast 409 471 26,900 900 Climbing Boston Center
02:15PM 40.6853 -73.1078 43° Northeast 409 471 27,800 900 Climbing Boston Center
02:16PM 40.7672 -73.0072 43° Northeast 403 464 28,800 540 Climbing Boston Center
02:17PM 40.8614 -72.8875 44° Northeast 397 457 29,000 60 Climbing Boston Center
02:18PM 40.9453 -72.7808 44° Northeast 397 457 29,000  Level Boston Center
02:19PM 41.0267 -72.6794 43° Northeast 397 457 29,000  Level Boston Center
02:20PM 41.1042 -72.5833 43° Northeast 397 457 29,000  Level Boston Center
02:21PM 41.1833 -72.4869 42° Northeast 392 451 29,000  Level Boston Center
02:22PM 41.2603 -72.3903 43° Northeast 392 451 29,000  Level Boston Center
02:23PM 41.3311 -72.2936 46° Northeast 392 451 29,000  Level Boston Center
02:24PM 41.4164 -72.1883 43° Northeast 386 444 29,000  Level Boston Center
02:25PM 41.4975 -72.0881 43° Northeast 386 444 29,000  Level Boston Center
02:26PM 41.5742 -71.9850 45° Northeast 386 444 29,000  Level Boston Center
02:27PM 41.6508 -71.8817 45° Northeast 386 444 29,000  Level Boston Center
02:28PM 41.7253 -71.7781 46° Northeast 380 437 29,000  Level Boston Center
02:29PM 41.7997 -71.6714 47° Northeast 380 437 29,000  Level Boston Center
02:30PM 41.8739 -71.5675 46° Northeast 380 437 29,000 -540 Level Boston Center
02:31PM 41.9461 -71.4772 43° Northeast 387 445 27,900 -1,620 Descending Boston Center
02:32PM 42.0203 -71.3725 46° Northeast 387 445 25,900 -2,040 Descending Boston Center
02:33PM 42.0942 -71.2678 46° Northeast 381 438 24,000 -960 Descending Boston Center
02:34PM 42.1703 -71.1628 46° Northeast 381 438 24,000  Level Boston Center
02:35PM 42.2439 -71.0547 47° Northeast 381 438 24,000  Level Boston Center
02:36PM 42.3197 -70.9492 46° Northeast 381 438 24,000  Level Boston Center
02:37PM 42.4014 -70.8292 47° Northeast 381 438 24,000 -120 Level Boston Center
02:38PM 42.4836 -70.7453 37° Northeast 381 438 23,800 -1,200 Descending Boston Center
02:39PM 42.5767 -70.6975 21° North 358 412 21,700 -2,040 Descending Boston Center
02:40PM 42.6675 -70.6469 22° Northeast 358 412 19,700 -2,040 Descending Boston Center
02:41PM 42.7564 -70.5936 24° Northeast 346 398 17,700 -1,920 Descending Boston Center
02:42PM 42.8347 -70.5458 24° Northeast 346 398 16,000 -1,620 Descending Boston Center
02:43PM 42.9256 -70.4892 25° Northeast 334 384 14,500 -1,440 Descending Boston Center
02:44PM 42.9978 -70.4417 26° Northeast 322 371 13,200 -1,440 Descending Boston Center
02:45PM 43.0864 -70.3847 25° Northeast 316 364 11,700 -1,140 Descending Boston Center
02:46PM 43.1717 -70.3847 360° North 303 349 11,000 -840 Descending Boston Center
02:47PM 43.2550 -70.3819 North 295 339 10,100 -1,140 Descending Boston Center
02:48PM 43.3303 -70.3878 357° North 282 325 8,800 -1,380 Descending Boston Center
02:49PM 43.3953 -70.4056 349° North 266 306 7,400 -1,140 Descending Boston Center
02:50PM 43.4642 -70.4233 349° North 242 278 6,500 -1,080 Descending Boston Center
02:51PM 43.5144 -70.4389 347° North 217 250 5,300 -1,260 Descending Boston Center
02:52PM 43.5711 -70.4569 347° North 192 221 4,100 -1,080 Descending Boston Center
02:53PM 43.6108 -70.4700 347° North 174 200 3,200 -900 Descending Boston Center